createdAt,value
2018-02-27T00:02:15.104Z,40.59
2018-02-27T00:04:43.700Z,42.00
2018-02-27T00:07:12.252Z,41.09
2018-02-27T00:09:40.808Z,40.36
2018-02-27T00:12:09.504Z,40.99
2018-02-27T00:14:38.052Z,40.04
2018-02-27T00:17:06.816Z,42.01
2018-02-27T00:19:36.423Z,43.65
2018-02-27T00:22:05.014Z,42.50
2018-02-27T00:24:33.675Z,43.25
2018-02-27T00:27:02.554Z,44.72
2018-02-27T00:29:31.101Z,44.99
2018-02-27T00:32:00.525Z,45.52
2018-02-27T00:34:30.142Z,46.64
2018-02-27T00:36:58.868Z,48.35
2018-02-27T00:39:27.442Z,48.17
2018-02-27T00:41:56.399Z,44.62
2018-02-27T00:44:25.120Z,43.41
2018-02-27T00:46:53.759Z,44.36
2018-02-27T00:49:22.493Z,43.51
2018-02-27T00:51:51.146Z,42.13
2018-02-27T00:54:19.766Z,42.28
2018-02-27T00:56:48.356Z,44.20
2018-02-27T00:59:16.917Z,42.56
2018-02-27T01:01:45.615Z,42.15
2018-02-27T01:04:14.301Z,42.81
2018-02-27T01:06:43.047Z,42.51
2018-02-27T01:09:12.497Z,41.97
2018-02-27T01:11:41.180Z,42.98
2018-02-27T01:14:09.747Z,42.39
2018-02-27T01:16:38.454Z,42.58
2018-02-27T01:19:07.337Z,41.94
2018-02-27T01:21:36.025Z,41.69
2018-02-27T01:24:04.610Z,41.54
2018-02-27T01:26:33.499Z,40.84
2018-02-27T01:29:02.037Z,41.92
2018-02-27T01:31:30.727Z,43.09
2018-02-27T01:33:59.620Z,43.72
2018-02-27T01:36:28.165Z,44.23
2018-02-27T01:38:56.716Z,44.64
2018-02-27T01:41:25.510Z,45.81
2018-02-27T01:43:54.054Z,45.37
2018-02-27T01:46:22.597Z,44.15
2018-02-27T01:48:51.188Z,43.13
2018-02-27T01:51:21.245Z,42.38
2018-02-27T01:53:49.788Z,43.74
2018-02-27T01:56:18.600Z,42.76
2018-02-27T01:58:47.940Z,42.90
2018-02-27T02:01:16.642Z,42.60
2018-02-27T02:03:45.482Z,44.28
2018-02-27T02:06:14.212Z,43.58
2018-02-27T02:08:42.755Z,46.69
2018-02-27T02:11:11.493Z,46.17
2018-02-27T02:13:40.040Z,44.82
2018-02-27T02:16:08.742Z,43.47
2018-02-27T02:18:37.537Z,43.38
2018-02-27T02:21:06.230Z,42.74
2018-02-27T02:23:34.817Z,42.83
2018-02-27T02:26:04.006Z,42.18
2018-02-27T02:31:06.096Z,42.63
2018-02-27T02:33:34.650Z,42.77
2018-02-27T02:36:03.358Z,42.35
2018-02-27T02:38:32.253Z,42.04
2018-02-27T02:41:00.942Z,42.07
2018-02-27T02:43:29.509Z,41.18
2018-02-27T02:45:58.309Z,41.24
2018-02-27T02:48:26.871Z,40.97
2018-02-27T02:50:55.421Z,40.87
2018-02-27T02:53:25.961Z,40.86
2018-02-27T02:55:54.688Z,40.28
2018-02-27T02:58:23.321Z,40.75
2018-02-27T03:00:52.882Z,40.36
2018-02-27T03:03:21.532Z,40.79
2018-02-27T03:05:50.255Z,41.18
2018-02-27T03:08:19.346Z,41.04
2018-02-27T03:10:48.081Z,42.36
2018-02-27T03:13:17.423Z,41.68
2018-02-27T03:15:46.270Z,40.91
2018-02-27T03:18:15.734Z,40.86
2018-02-27T03:20:44.351Z,40.90
2018-02-27T03:23:13.920Z,41.38
2018-02-27T03:25:42.605Z,40.63
2018-02-27T03:28:11.233Z,40.52
2018-02-27T03:30:40.790Z,40.36
2018-02-27T03:33:09.443Z,40.94
2018-02-27T03:35:39.036Z,40.43
2018-02-27T03:38:08.799Z,39.97
2018-02-27T03:40:38.308Z,39.69
2018-02-27T03:43:06.993Z,39.63
2018-02-27T03:45:36.086Z,40.21
2018-02-27T03:48:04.668Z,39.58
2018-02-27T03:50:33.358Z,39.60
2018-02-27T03:53:01.960Z,40.60
2018-02-27T03:55:30.729Z,40.37
2018-02-27T03:57:59.370Z,40.56
2018-02-27T04:00:28.102Z,44.33
2018-02-27T04:02:56.788Z,46.95
2018-02-27T04:05:25.377Z,45.44
2018-02-27T04:07:54.056Z,43.40
2018-02-27T04:10:22.746Z,42.71
2018-02-27T04:12:51.432Z,42.69
2018-02-27T04:15:20.167Z,42.74
2018-02-27T04:17:49.615Z,42.76
2018-02-27T04:20:18.253Z,43.02
2018-02-27T04:22:47.797Z,42.54
2018-02-27T04:25:16.497Z,42.23
2018-02-27T04:27:45.074Z,42.87
2018-02-27T04:30:13.667Z,42.59
2018-02-27T04:32:42.235Z,44.76
2018-02-27T04:35:10.834Z,43.84
2018-02-27T04:37:39.677Z,46.61
2018-02-27T04:40:08.402Z,43.98
2018-02-27T04:42:37.062Z,44.75
2018-02-27T04:45:05.889Z,46.04
2018-02-27T04:47:34.464Z,46.36
2018-02-27T04:50:03.147Z,50.80
2018-02-27T04:52:32.307Z,49.13
2018-02-27T04:55:00.858Z,51.49
2018-02-27T04:57:29.620Z,48.21
2018-02-27T04:59:58.359Z,48.78
2018-02-27T05:02:27.092Z,49.24
2018-02-27T05:04:55.663Z,48.20
2018-02-27T05:07:24.737Z,47.26
2018-02-27T05:09:53.456Z,46.42
2018-02-27T05:12:22.122Z,45.71
2018-02-27T05:14:50.890Z,48.30
2018-02-27T05:17:19.613Z,47.46
2018-02-27T05:19:48.298Z,50.17
2018-02-27T05:22:16.989Z,52.68
2018-02-27T05:24:45.528Z,48.75
2018-02-27T05:27:14.084Z,46.97
2018-02-27T05:29:42.824Z,52.04
2018-02-27T05:32:11.392Z,52.94
2018-02-27T05:34:39.973Z,51.19
2018-02-27T05:37:08.567Z,48.65
2018-02-27T05:39:37.117Z,48.23
2018-02-27T05:42:05.660Z,48.68
2018-02-27T05:44:35.031Z,51.83
2018-02-27T05:47:03.576Z,51.77
2018-02-27T05:49:32.128Z,49.17
2018-02-27T05:52:00.716Z,47.07
2018-02-27T05:54:30.765Z,46.36
2018-02-27T05:56:59.311Z,47.50
2018-02-27T05:59:28.682Z,48.64
2018-02-27T06:01:57.225Z,49.95
2018-02-27T06:04:25.768Z,45.58
2018-02-27T06:06:55.592Z,47.58
2018-02-27T06:09:24.907Z,44.66
2018-02-27T06:11:54.277Z,45.11
2018-02-27T06:14:22.824Z,47.72
2018-02-27T06:16:51.406Z,48.25
2018-02-27T06:19:20.012Z,48.64
2018-02-27T06:21:48.566Z,49.45
2018-02-27T06:24:17.116Z,49.29
2018-02-27T06:26:46.127Z,45.37
2018-02-27T06:29:14.673Z,44.47
2018-02-27T06:31:43.977Z,43.62
2018-02-27T06:34:13.526Z,45.17
2018-02-27T06:36:42.069Z,43.51
2018-02-27T06:39:11.377Z,40.86
2018-02-27T06:41:40.073Z,39.66
2018-02-27T06:44:08.612Z,38.79
2018-02-27T06:46:37.160Z,37.57
2018-02-27T06:49:05.753Z,37.51
2018-02-27T06:51:35.104Z,37.44
2018-02-27T06:54:04.428Z,37.87
2018-02-27T06:56:33.065Z,36.96
2018-02-27T06:59:01.615Z,36.77
2018-02-27T07:01:30.214Z,36.10
2018-02-27T07:03:58.801Z,35.70
2018-02-27T07:06:27.349Z,37.79
2018-02-27T07:08:55.893Z,36.96
2018-02-27T07:11:25.356Z,38.99
2018-02-27T07:13:53.901Z,39.33
2018-02-27T07:16:22.448Z,38.24
2018-02-27T07:18:51.361Z,38.29
2018-02-27T07:21:20.684Z,36.16
2018-02-27T07:23:49.241Z,34.58
2018-02-27T07:26:18.617Z,34.88
2018-02-27T07:28:47.170Z,35.78
2018-02-27T07:31:15.716Z,39.83
2018-02-27T07:33:45.081Z,37.96
2018-02-27T07:36:13.648Z,36.88
2018-02-27T07:38:42.204Z,37.51
2018-02-27T07:41:11.019Z,37.51
2018-02-27T07:43:39.577Z,36.44
2018-02-27T07:46:08.126Z,38.40
2018-02-27T07:48:37.497Z,37.06
2018-02-27T07:51:06.042Z,35.88
2018-02-27T07:53:34.601Z,37.37
2018-02-27T07:56:04.923Z,37.19
2018-02-27T07:58:34.241Z,38.39
2018-02-27T08:01:02.866Z,37.60
2018-02-27T08:03:31.464Z,37.14
2018-02-27T08:06:00.014Z,38.10
2018-02-27T08:08:28.573Z,36.89
2018-02-27T08:10:57.395Z,35.15
2018-02-27T08:13:25.949Z,37.97
2018-02-27T08:15:54.506Z,37.46
2018-02-27T08:18:24.068Z,35.28
2018-02-27T08:20:52.625Z,34.24
2018-02-27T08:23:21.182Z,32.63
2018-02-27T08:25:50.701Z,32.39
2018-02-27T08:28:20.016Z,33.02
2018-02-27T08:30:48.576Z,32.34
2018-02-27T08:33:17.940Z,31.18
2018-02-27T08:35:46.493Z,30.52
2018-02-27T08:38:15.041Z,28.92
2018-02-27T08:40:43.885Z,30.73
2018-02-27T08:43:12.442Z,32.06
2018-02-27T08:45:40.996Z,31.78
2018-02-27T08:48:10.359Z,28.73
2018-02-27T08:50:38.909Z,28.24
2018-02-27T08:53:07.461Z,32.29
2018-02-27T08:55:36.969Z,32.57
2018-02-27T08:58:06.297Z,27.59
2018-02-27T09:00:34.855Z,27.70
2018-02-27T09:03:04.224Z,26.96
2018-02-27T09:05:32.794Z,24.17
2018-02-27T09:08:01.356Z,27.41
2018-02-27T09:10:29.958Z,27.27
2018-02-27T09:12:58.508Z,30.19
2018-02-27T09:15:27.073Z,27.82
2018-02-27T09:17:56.629Z,28.19
2018-02-27T09:20:25.221Z,28.75
2018-02-27T09:22:53.784Z,29.69
2018-02-27T09:25:22.583Z,27.76
2018-02-27T09:27:51.170Z,30.33
2018-02-27T09:30:19.734Z,26.67
2018-02-27T09:32:48.437Z,33.31
2018-02-27T09:35:16.986Z,33.12
2018-02-27T09:37:45.541Z,27.60
2018-02-27T09:40:14.151Z,26.29
2018-02-27T09:42:42.708Z,26.40
2018-02-27T09:45:11.260Z,25.15
2018-02-27T09:47:40.637Z,24.86
2018-02-27T09:50:09.196Z,25.04
2018-02-27T09:52:37.746Z,24.57
2018-02-27T09:55:06.494Z,22.42
2018-02-27T09:57:35.056Z,26.40
2018-02-27T10:00:03.654Z,26.63
2018-02-27T10:02:32.252Z,26.34
2018-02-27T10:05:00.826Z,26.90
2018-02-27T10:07:29.392Z,22.41
2018-02-27T10:09:58.755Z,27.45
2018-02-27T10:12:27.324Z,27.07
2018-02-27T10:14:56.646Z,26.42
2018-02-27T10:17:25.259Z,27.06
2018-02-27T10:19:53.832Z,29.30
2018-02-27T10:22:22.387Z,26.86
2018-02-27T10:24:51.017Z,26.27
2018-02-27T10:27:19.572Z,29.33
2018-02-27T10:29:48.128Z,28.97
2018-02-27T10:32:18.280Z,31.22
2018-02-27T10:34:47.953Z,29.79
2018-02-27T10:37:17.364Z,30.73
2018-02-27T10:39:45.972Z,26.40
2018-02-27T12:17:26.324Z,31.13
2018-02-27T12:19:55.048Z,30.94
2018-02-27T12:22:23.632Z,31.30
2018-02-27T12:24:52.417Z,33.22
2018-02-27T12:27:21.103Z,32.03
2018-02-27T12:29:49.789Z,26.13
2018-02-27T12:32:18.782Z,25.52
2018-02-27T12:34:48.290Z,26.69
2018-02-27T12:37:16.976Z,28.77
2018-02-27T12:39:45.708Z,27.63
2018-02-27T12:42:15.159Z,28.19
2018-02-27T12:44:43.794Z,25.13
2018-02-27T12:47:12.532Z,25.60
2018-02-27T12:49:41.120Z,28.00
2018-02-27T12:52:09.748Z,30.24
2018-02-27T12:54:39.117Z,27.76
2018-02-27T12:57:07.677Z,26.78
2018-02-27T12:59:36.378Z,31.96
2018-02-27T13:02:05.054Z,30.92
2018-02-27T13:04:33.749Z,32.01
2018-02-27T13:07:02.435Z,32.77
2018-02-27T13:09:31.116Z,34.84
2018-02-27T13:11:59.807Z,34.17
2018-02-27T13:14:28.493Z,35.81
2018-02-27T13:16:58.682Z,34.39
2018-02-27T13:19:27.270Z,34.45
2018-02-27T13:21:55.820Z,29.84
2018-02-27T13:24:24.417Z,31.06
2018-02-27T13:26:52.960Z,30.36
2018-02-27T13:29:21.508Z,27.96
2018-02-27T13:31:51.026Z,27.30
2018-02-27T13:34:19.564Z,27.19
2018-02-27T13:36:48.120Z,29.86
2018-02-27T13:39:16.896Z,26.56
2018-02-27T13:41:46.209Z,27.78
2018-02-27T13:44:15.519Z,30.77
2018-02-27T13:46:44.152Z,32.28
2018-02-27T13:49:12.725Z,31.12
2018-02-27T13:51:42.045Z,30.52
2018-02-27T13:54:10.741Z,30.56
2018-02-27T13:56:40.060Z,31.20
2018-02-27T13:59:08.605Z,28.53
2018-02-27T14:01:38.166Z,29.28
2018-02-27T14:04:06.715Z,31.31
2018-02-27T14:06:36.025Z,28.51
2018-02-27T14:09:05.049Z,30.18
2018-02-27T14:11:33.601Z,28.20
2018-02-27T14:14:02.046Z,28.78
2018-02-27T14:16:30.674Z,33.47
2018-02-27T14:18:59.104Z,33.21
2018-02-27T14:21:27.532Z,35.17
2018-02-27T14:23:56.196Z,36.94
2018-02-27T14:26:24.618Z,35.01
2018-02-27T14:28:53.038Z,36.86
2018-02-27T14:31:21.494Z,34.36
2018-02-27T14:33:49.936Z,34.35
2018-02-27T14:36:18.355Z,35.16
2018-02-27T14:38:47.672Z,37.15
2018-02-27T14:41:16.862Z,36.45
2018-02-27T14:43:46.048Z,36.62
2018-02-27T14:46:15.438Z,34.27
2018-02-27T14:48:44.631Z,34.75
2018-02-27T14:51:13.057Z,35.63
2018-02-27T14:53:41.526Z,34.37
2018-02-27T14:56:10.711Z,36.60
2018-02-27T14:58:39.907Z,35.28
2018-02-27T15:01:08.474Z,37.10
2018-02-27T15:03:36.906Z,38.37
2018-02-27T15:06:05.331Z,34.89
2018-02-27T15:08:34.174Z,36.57
2018-02-27T15:11:02.608Z,36.34
2018-02-27T15:13:31.042Z,34.95
2018-02-27T15:15:59.831Z,33.82
2018-02-27T15:18:28.259Z,33.93
2018-02-27T15:20:56.703Z,33.33
2018-02-27T15:23:25.470Z,33.72
2018-02-27T15:25:53.908Z,36.01
2018-02-27T15:28:22.342Z,35.92
2018-02-27T15:30:50.853Z,35.57
2018-02-27T15:33:19.279Z,36.42
2018-02-27T15:35:47.709Z,36.07
2018-02-27T15:38:17.252Z,36.78
2018-02-27T15:40:45.683Z,38.19
2018-02-27T15:43:14.114Z,38.71
2018-02-27T15:45:42.694Z,39.12
2018-02-27T15:48:11.116Z,40.72
2018-02-27T15:50:39.546Z,41.00
2018-02-27T15:53:08.024Z,41.43
2018-02-27T15:55:36.532Z,42.33
2018-02-27T15:58:04.962Z,41.84
2018-02-27T16:00:34.398Z,41.31
2018-02-27T16:03:02.831Z,40.21
2018-02-27T16:05:31.275Z,40.11
2018-02-27T16:07:59.746Z,40.69
2018-02-27T16:10:28.171Z,42.21
2018-02-27T16:12:56.675Z,42.73
2018-02-27T16:15:25.927Z,43.38
2018-02-27T16:17:54.359Z,42.98
2018-02-27T16:20:23.567Z,43.02
2018-02-27T16:22:52.301Z,44.99
2018-02-27T16:25:20.763Z,44.58
2018-02-27T16:27:49.204Z,45.71
2018-02-27T16:30:18.451Z,45.35
2018-02-27T16:32:46.879Z,45.86
2018-02-27T16:35:15.311Z,45.28
2018-02-27T16:37:43.787Z,45.95
2018-02-27T16:40:12.219Z,45.73
2018-02-27T16:42:40.655Z,46.55
2018-02-27T16:45:11.022Z,48.05
2018-02-27T16:47:39.468Z,47.06
2018-02-27T16:50:08.659Z,47.28
2018-02-27T16:52:37.382Z,47.25
2018-02-27T16:55:05.815Z,46.31
2018-02-27T16:57:34.251Z,46.79
2018-02-27T17:00:02.728Z,45.75
2018-02-27T17:02:31.165Z,47.61
2018-02-27T17:04:59.596Z,49.36
2018-02-27T17:07:28.068Z,49.43
2018-02-27T17:09:56.495Z,49.11
2018-02-27T17:12:25.105Z,49.16
2018-02-27T17:14:53.745Z,49.98
2018-02-27T17:17:22.171Z,50.18
2018-02-27T17:19:51.397Z,51.54
2018-02-27T17:22:19.959Z,51.03
2018-02-27T17:24:48.390Z,51.56
2018-02-27T17:27:16.811Z,51.23
2018-02-27T17:29:46.134Z,51.83
2018-02-27T17:32:14.565Z,51.21
2018-02-27T17:34:43.008Z,52.30
2018-02-27T17:37:11.795Z,50.46
2018-02-27T17:39:40.227Z,51.07
2018-02-27T17:42:09.427Z,51.22
2018-02-27T17:44:39.111Z,52.10
2018-02-27T17:47:07.565Z,52.05
2018-02-27T17:49:35.988Z,52.42
2018-02-27T17:52:05.549Z,51.47
2018-02-27T17:54:34.003Z,50.95
2018-02-27T17:57:02.436Z,50.31
2018-02-27T17:59:31.016Z,50.75
2018-02-27T18:01:59.447Z,50.80
2018-02-27T18:04:27.870Z,51.14
2018-02-27T18:06:56.526Z,51.06
2018-02-27T18:09:24.951Z,51.32
2018-02-27T18:11:54.162Z,51.77
2018-02-27T18:14:23.459Z,51.65
2018-02-27T18:16:51.889Z,51.34
2018-02-27T18:19:20.339Z,51.14
2018-02-27T18:21:49.575Z,52.26
2018-02-27T18:24:18.001Z,52.00
2018-02-27T18:26:47.200Z,50.68
2018-02-27T18:29:16.435Z,51.60
2018-02-27T18:31:44.864Z,50.59
2018-02-27T18:34:13.287Z,51.21
2018-02-27T18:36:42.082Z,49.99
2018-02-27T18:39:10.503Z,50.06
2018-02-27T18:41:38.962Z,49.71
2018-02-27T18:44:07.492Z,48.81
2018-02-27T18:46:35.915Z,50.07
2018-02-27T18:49:04.347Z,50.96
2018-02-27T18:51:33.069Z,50.66
2018-02-27T18:54:01.934Z,50.42
2018-02-27T19:14:49.923Z,49.42
2018-02-27T19:17:18.599Z,51.30
2018-02-27T19:19:47.031Z,50.42
2018-02-27T19:22:15.466Z,50.63
2018-02-27T19:24:44.166Z,50.64
2018-02-27T19:27:12.590Z,49.70
2018-02-27T19:29:41.019Z,49.26
2018-02-27T19:32:09.498Z,49.32
2018-02-27T19:34:37.927Z,49.95
2018-02-27T19:37:06.355Z,49.96
2018-02-27T19:39:34.833Z,49.33
2018-02-27T19:42:03.262Z,49.88
2018-02-27T19:44:31.682Z,49.53
2018-02-27T19:47:00.914Z,49.80
2018-02-27T19:49:29.335Z,49.13
2018-02-27T19:51:57.758Z,50.85
2018-02-27T19:54:26.441Z,51.09
2018-02-27T19:56:54.891Z,50.90
2018-02-27T19:59:24.084Z,50.43
2018-02-27T20:01:53.535Z,49.23
2018-02-27T20:04:21.961Z,50.70
2018-02-27T20:06:50.390Z,36.83
2018-02-27T20:09:18.867Z,37.00
2018-02-27T20:11:47.291Z,39.98
2018-02-27T20:14:21.166Z,39.68
2018-02-27T20:16:49.615Z,41.38
2018-02-27T20:19:18.039Z,41.94
2018-02-27T20:21:48.538Z,42.98
2018-02-27T20:24:17.849Z,44.40
2018-02-27T20:26:46.298Z,44.11
2018-02-27T20:29:21.162Z,42.82
2018-02-27T20:31:49.607Z,42.03
2018-02-27T20:34:18.799Z,42.97
2018-02-27T20:36:48.250Z,42.70
2018-02-27T20:39:22.192Z,42.75
2018-02-27T20:41:50.786Z,35.67
2018-02-27T20:44:19.219Z,35.31
2018-02-27T20:46:47.654Z,36.68
2018-02-27T20:49:17.085Z,37.28
2018-02-27T20:51:45.514Z,36.88
2018-02-27T20:54:13.929Z,36.58
2018-02-27T20:56:42.415Z,37.96
2018-02-27T20:59:10.846Z,37.36
2018-02-27T21:01:39.290Z,37.50
2018-02-27T21:04:07.759Z,36.79
2018-02-27T21:06:36.187Z,39.06
2018-02-27T21:09:04.694Z,37.96
2018-02-27T21:11:33.174Z,38.36
2018-02-27T21:14:02.382Z,37.91
2018-02-27T21:16:31.574Z,38.38
2018-02-27T21:19:00.815Z,39.47
2018-02-27T21:21:29.239Z,40.22
2018-02-27T21:23:57.699Z,40.10
2018-02-27T21:26:26.352Z,39.65
2018-02-27T21:28:54.786Z,38.86
2018-02-27T21:31:23.213Z,38.83
2018-02-27T21:33:51.674Z,38.95
2018-02-27T21:36:20.866Z,41.02
2018-02-27T21:38:50.064Z,39.17
2018-02-27T21:41:18.712Z,38.33
2018-02-27T21:43:47.139Z,39.21
2018-02-27T21:46:15.631Z,40.63
2018-02-27T21:48:44.831Z,40.15
2018-02-27T21:51:13.279Z,41.48
2018-02-27T21:53:42.484Z,39.75
2018-02-27T21:56:11.732Z,40.62
2018-02-27T21:58:40.158Z,41.36
2018-02-27T22:01:09.364Z,41.17
2018-02-27T22:03:38.795Z,41.06
2018-02-27T22:06:07.220Z,37.39
2018-02-27T22:08:36.425Z,38.11
2018-02-27T22:11:06.700Z,36.80
2018-02-27T22:13:35.142Z,39.89
2018-02-27T22:16:04.374Z,41.34
2018-02-27T22:18:32.851Z,43.11
2018-02-27T22:21:01.271Z,44.65
2018-02-27T22:23:29.700Z,41.29
2018-02-27T22:25:58.394Z,41.91
2018-02-27T22:28:26.819Z,41.67
2018-02-27T22:30:55.243Z,43.88
2018-02-27T22:33:23.702Z,41.48
2018-02-27T22:35:52.903Z,40.86
2018-02-27T22:38:22.094Z,40.50
2018-02-27T22:40:51.331Z,41.65
2018-02-27T22:43:20.522Z,41.56
2018-02-27T22:45:48.950Z,38.04
2018-02-27T22:48:17.770Z,37.98
2018-02-27T22:50:46.965Z,39.46
2018-02-27T22:53:16.161Z,40.21
2018-02-27T22:55:45.406Z,42.13
2018-02-27T22:58:13.830Z,40.11
2018-02-27T23:00:43.019Z,41.57
2018-02-27T23:03:11.854Z,42.08
2018-02-27T23:05:40.280Z,41.29
2018-02-27T23:08:08.698Z,41.48
2018-02-27T23:10:38.319Z,39.98
2018-02-27T23:13:06.759Z,39.98
2018-02-27T23:15:35.785Z,40.20
2018-02-27T23:18:04.378Z,40.00
2018-02-27T23:20:32.811Z,41.60
2018-02-27T23:23:01.240Z,41.30
2018-02-27T23:25:48.255Z,38.16
2018-02-27T23:28:18.215Z,36.81
2018-02-27T23:30:47.098Z,36.53
2018-02-27T23:33:31.902Z,36.21
2018-02-27T23:36:01.095Z,34.80
2018-02-27T23:38:30.294Z,35.58
2018-02-27T23:40:59.834Z,36.30
2018-02-27T23:43:28.258Z,35.69
2018-02-27T23:45:56.690Z,35.63
2018-02-27T23:48:25.474Z,37.84
2018-02-27T23:50:53.899Z,38.20
2018-02-27T23:53:22.334Z,38.22
2018-02-27T23:55:51.221Z,37.49
2018-02-27T23:58:19.780Z,38.05
